Estación Meteorológica Peña el Pijo (Robertgarden) [ 10/16/18 03:16:50 CEST ]

Fecha Hora Presion(HPa) Temp (°C) Humedad % Rocio (°C) Viento ( m/s) Direccion Lluvia 1Hora(mm) Lluvia 24H(mm) LLuvia Total(mm)
2018-Aug-15 01:01:42 1012.800 17.9 79 14.2         287.49
2018-Aug-15 02:01:50 1012.600 17.0 81 13.7         287.49
2018-Aug-15 03:01:17 1012.200 16.7 82 13.6         287.49
2018-Aug-15 04:01:23 1012.400 15.3 82 12.3         287.49
2018-Aug-15 05:02:14 1012.200 14.1 83 11.2         287.49
2018-Aug-15 06:01:22 1012.200 14.4 83 11.5         287.49
2018-Aug-15 07:01:39 1012.400 13.3 82 10.3         287.49
2018-Aug-15 08:01:46 1012.400 12.7 83 9.9         287.49
2018-Aug-15 09:01:49 1012.700 17.4 80 13.9         287.49
2018-Aug-15 10:02:15 1012.700 22.4 62 14.7         287.49
2018-Aug-15 11:01:45 1012.200 26.6 57 17.4         287.49
2018-Aug-15 12:01:46 1012.200 30.0 45 16.8         287.49
2018-Aug-15 13:02:01 1012.100 30.8 42 16.4         287.49
2018-Aug-15 14:01:52 1011.800 31.3 41 16.5 3.0 S     287.49
2018-Aug-15 15:01:56 1011.500 30.5 42 16.1 2.5 WSW     287.49
2018-Aug-15 16:01:45 1011.100 30.6 39 15.1         287.49
2018-Aug-15 17:01:53 1011.400 24.5 53 14.3         287.49
2018-Aug-15 18:01:37 1011.900 20.1 68 14.0         287.49
2018-Aug-15 19:01:36 1011.400 18.6 77 14.5     1.03 1.03 288.52
2018-Aug-15 20:01:43 1011.400 18.7 80 15.2       1.03 288.52
2018-Aug-15 21:01:50 1011.300 18.1 83 15.2       1.03 288.52
2018-Aug-15 22:01:56 1011.900 17.7 83 14.8     0.51 1.55 289.04
2018-Aug-15 23:01:48 1011.600 17.3 81 14.0       1.55 289.04

Temperatura Máxima:31°    Temperatura Mínima:12°
Presión Máxima:1012.800 Hpa    Presión Mínima:1011.100 Hpa


Volver